Time;durP1;ratioP1;P1;durP2;ratioP2;P2;SDS_P1;SDS_P2;PMS_P1;PMS_P2;Temp;Humidity;BMP_temperature;BMP_pressure;BME280_temperature;BME280_humidity;BME280_pressure;Samples;Min_cycle;Max_cycle;Signal;HPM_P1;HPM_P2
2023/05/09 00:09:00;;;;;;;2.40;1.60;;;;;;;20.36;64.97;101460.00;20904447;28;20044;-64
2023/05/09 00:19:02;;;;;;;1.98;1.77;;;;;;;20.36;65.13;101453.72;20903107;28;20052;-64
2023/05/09 00:29:04;;;;;;;2.30;2.10;;;;;;;20.35;65.17;101441.19;20903889;28;20051;-64
2023/05/09 00:39:06;;;;;;;2.38;2.15;;;;;;;20.33;64.98;101433.22;20901157;28;20072;-64
2023/05/09 00:49:08;;;;;;;2.30;2.05;;;;;;;20.35;64.96;101423.13;20892864;28;20045;-64
2023/05/09 00:59:10;;;;;;;3.55;2.38;;;;;;;20.34;65.13;101399.78;20901391;28;20060;-64
2023/05/09 01:09:19;;;;;;;2.22;2.03;;;;;;;20.34;65.09;101382.69;20898973;28;20130;-64
2023/05/09 01:19:46;;;;;;;3.00;2.47;;;;;;;20.31;65.18;101359.47;20898518;28;20053;-64
2023/05/09 01:29:54;;;;;;;2.63;2.42;;;;;;;20.25;64.96;101342.00;20881115;28;20055;-64
2023/05/09 01:40:00;;;;;;;2.60;2.40;;;;;;;20.31;65.05;101329.75;20879143;28;20052;-64
2023/05/09 01:50:02;;;;;;;2.53;2.30;;;;;;;20.31;65.13;101323.50;20866706;28;20147;-64
2023/05/09 02:00:05;;;;;;;2.72;2.53;;;;;;;20.29;65.28;101315.50;20898052;28;20045;-64
2023/05/09 02:10:14;;;;;;;2.95;2.50;;;;;;;20.29;65.36;101312.81;20897412;28;20057;-64
2023/05/09 02:20:16;;;;;;;2.50;2.30;;;;;;;20.22;65.33;101319.78;20895852;28;20464;-64
2023/05/09 02:30:22;;;;;;;2.80;2.50;;;;;;;20.26;65.35;101329.31;20895896;28;20132;-64
2023/05/09 02:40:25;;;;;;;4.20;2.75;;;;;;;20.27;65.54;101309.41;20889560;28;20037;-64
2023/05/09 02:50:27;;;;;;;3.57;3.17;;;;;;;20.25;65.95;101300.56;20893573;28;20063;-64
2023/05/09 03:00:29;;;;;;;3.40;3.10;;;;;;;20.25;65.78;101295.16;20910303;28;20049;-64
2023/05/09 03:10:31;;;;;;;3.10;2.80;;;;;;;20.24;65.95;101282.66;20908271;28;20517;-64
2023/05/09 03:20:33;;;;;;;2.42;2.22;;;;;;;20.23;65.88;101272.81;20906873;28;20618;-64
2023/05/09 03:30:35;;;;;;;2.65;2.45;;;;;;;20.22;65.99;101260.31;20906528;28;20041;-64
2023/05/09 03:40:39;;;;;;;2.90;2.60;;;;;;;20.22;65.99;101254.91;20903001;28;20052;-65
2023/05/09 03:50:43;;;;;;;3.40;2.53;;;;;;;20.21;65.98;101253.19;20896801;28;20049;-64
2023/05/09 04:00:46;;;;;;;2.65;2.45;;;;;;;20.20;65.85;101237.97;20904279;28;20056;-64
2023/05/09 04:10:54;;;;;;;2.60;2.40;;;;;;;20.18;66.01;101221.03;20887757;28;20106;-64
2023/05/09 04:20:57;;;;;;;2.47;2.28;;;;;;;20.18;65.94;101221.03;20902541;28;20052;-64
2023/05/09 04:30:59;;;;;;;2.80;2.60;;;;;;;20.16;66.07;101218.50;20901713;28;20048;-64
2023/05/09 04:41:02;;;;;;;2.45;2.25;;;;;;;20.10;66.08;101211.81;20886204;28;20725;-64
2023/05/09 04:51:04;;;;;;;2.35;2.15;;;;;;;20.16;65.70;101212.22;20883987;28;20051;-64
2023/05/09 05:01:06;;;;;;;2.30;2.10;;;;;;;20.15;65.61;101211.38;20883028;28;20045;-64
2023/05/09 05:11:08;;;;;;;2.35;2.15;;;;;;;20.16;65.52;101206.81;20899055;28;20532;-64
2023/05/09 05:21:09;;;;;;;2.40;2.20;;;;;;;20.17;65.51;101205.81;20898993;28;20049;-64
2023/05/09 05:31:11;;;;;;;2.00;1.90;;;;;;;20.16;65.55;101185.19;20898242;28;20045;-64
2023/05/09 05:41:14;;;;;;;2.40;2.20;;;;;;;20.14;65.36;101183.50;20889864;28;20525;-64
2023/05/09 05:51:17;;;;;;;2.03;1.83;;;;;;;20.14;65.38;101172.69;20881615;28;20068;-64
2023/05/09 06:01:19;;;;;;;2.22;2.03;;;;;;;20.16;65.21;101160.88;20897206;28;20542;-64
2023/05/09 06:11:22;;;;;;;2.47;2.28;;;;;;;20.13;65.28;101152.06;20901767;28;20053;-64
2023/05/09 06:21:23;;;;;;;2.30;2.10;;;;;;;20.12;65.34;101136.84;20912123;28;20045;-64
2023/05/09 06:31:25;;;;;;;2.33;2.13;;;;;;;20.13;65.60;101130.44;20911430;28;20045;-64
2023/05/09 06:41:27;;;;;;;2.35;2.15;;;;;;;20.13;65.48;101122.31;20899497;28;20067;-64
2023/05/09 06:51:28;;;;;;;2.40;2.20;;;;;;;20.12;65.80;101104.41;20910959;28;20049;-65
2023/05/09 07:01:30;;;;;;;3.25;2.42;;;;;;;20.13;65.71;101095.28;20910260;28;20102;-64
2023/05/09 07:11:35;;;;;;;2.22;2.03;;;;;;;20.07;65.90;101092.31;20909182;28;20071;-64
2023/05/09 07:21:36;;;;;;;2.90;2.40;;;;;;;20.12;65.70;101082.78;20908283;28;20048;-65
2023/05/09 07:31:38;;;;;;;3.22;2.70;;;;;;;20.12;65.93;101071.97;20908247;28;20076;-64
2023/05/09 07:41:40;;;;;;;2.80;2.58;;;;;;;20.12;65.96;101055.75;20890810;28;20060;-64
2023/05/09 07:51:41;;;;;;;3.38;2.80;;;;;;;20.11;66.23;101047.81;20906141;28;20061;-64
2023/05/09 08:01:43;;;;;;;3.80;2.67;;;;;;;20.06;66.17;101040.13;20905664;28;20045;-65
2023/05/09 08:11:44;;;;;;;3.78;2.70;;;;;;;20.13;66.33;101030.44;20904641;28;20727;-64
2023/05/09 08:21:46;;;;;;;4.70;2.88;;;;;;;20.12;66.22;101015.22;20902230;28;20041;-64
2023/05/09 08:31:48;;;;;;;4.07;3.10;;;;;;;20.14;66.40;101005.09;20902465;28;20075;-64
2023/05/09 08:41:50;;;;;;;5.30;3.40;;;;;;;20.15;66.39;101000.56;20890848;28;20048;-64
2023/05/09 08:51:53;;;;;;;3.42;3.08;;;;;;;20.14;66.31;100993.44;20901518;28;20049;-64
2023/05/09 09:01:54;;;;;;;3.25;2.95;;;;;;;20.17;66.37;100970.66;20901097;28;20065;-64
2023/05/09 09:11:56;;;;;;;3.70;3.33;;;;;;;20.19;66.49;100952.44;20900787;28;20049;-64
2023/05/09 09:22:02;;;;;;;3.08;2.78;;;;;;;20.19;66.31;100939.78;20898612;28;20041;-64
2023/05/09 09:32:05;;;;;;;3.22;2.92;;;;;;;20.23;66.14;100943.03;20891564;28;20505;-64
2023/05/09 09:42:10;;;;;;;3.55;3.03;;;;;;;20.24;66.10;100940.19;20891044;28;20058;-64
2023/05/09 09:52:21;;;;;;;3.78;3.42;;;;;;;20.23;66.49;100932.22;20914449;28;20443;-64
2023/05/09 10:02:23;;;;;;;3.72;3.00;;;;;;;20.26;66.08;100926.50;20914691;28;20493;-64
2023/05/09 10:12:25;;;;;;;3.60;3.30;;;;;;;20.26;66.18;100899.47;20914118;28;20048;-64
2023/05/09 10:22:28;;;;;;;4.07;3.10;;;;;;;20.33;66.10;100895.19;20913780;28;20440;-64
2023/05/09 10:32:52;;;;;;;3.58;3.28;;;;;;;20.37;65.85;100888.47;20902639;28;20056;-64
2023/05/09 10:42:53;;;;;;;3.42;3.05;;;;;;;20.39;65.95;100877.47;20912188;28;20072;-65
2023/05/09 10:53:10;;;;;;;3.75;3.28;;;;;;;20.39;65.95;100867.53;20911339;28;20063;-64
2023/05/09 11:03:11;;;;;;;3.13;2.80;;;;;;;20.39;66.36;100845.91;20908506;28;20041;-65
2023/05/09 11:13:17;;;;;;;3.90;3.22;;;;;;;20.38;66.39;100852.31;20909015;28;20091;-64
2023/05/09 11:23:21;;;;;;;3.83;3.40;;;;;;;20.39;66.60;100834.22;20909471;28;20041;-64
2023/05/09 11:33:26;;;;;;;4.13;3.08;;;;;;;20.33;66.54;100807.81;20894449;28;20068;-65
2023/05/09 11:43:27;;;;;;;4.00;3.40;;;;;;;20.36;66.58;100802.94;20907069;28;20053;-64
2023/05/09 11:53:29;;;;;;;3.78;3.40;;;;;;;20.36;66.27;100780.47;20905261;28;20053;-65
2023/05/09 12:03:31;;;;;;;3.45;3.10;;;;;;;20.36;66.18;100762.41;20904130;28;20079;-65
2023/05/09 12:13:34;;;;;;;3.80;3.30;;;;;;;20.38;66.16;100752.28;20904764;28;20080;-65
2023/05/09 12:23:35;;;;;;;4.10;3.30;;;;;;;20.38;66.34;100746.88;20902903;28;20057;-64
2023/05/09 12:33:37;;;;;;;3.90;3.30;;;;;;;20.37;66.41;100719.97;20887132;28;20049;-65
2023/05/09 12:43:39;;;;;;;3.47;3.17;;;;;;;20.40;66.20;100706.13;20901369;28;20081;-64
2023/05/09 12:53:41;;;;;;;4.45;3.60;;;;;;;20.39;66.14;100705.31;20900277;28;20402;-64
2023/05/09 13:03:43;;;;;;;3.85;3.40;;;;;;;20.40;66.18;100692.63;20900339;28;20072;-64
2023/05/09 13:13:45;;;;;;;5.13;4.10;;;;;;;20.39;66.18;100683.66;20900095;28;20045;-64
2023/05/09 13:23:48;;;;;;;5.28;4.32;;;;;;;20.37;66.10;100680.28;20898581;28;20080;-65
2023/05/09 13:33:50;;;;;;;4.47;4.00;;;;;;;20.35;66.19;100676.03;20888153;28;20056;-65
2023/05/09 13:43:52;;;;;;;6.28;4.70;;;;;;;20.35;66.10;100676.88;20899310;28;20057;-64
2023/05/09 13:53:54;;;;;;;5.13;4.40;;;;;;;20.35;66.08;100666.06;20897434;28;20053;-65
2023/05/09 14:03:55;;;;;;;4.90;4.10;;;;;;;20.36;66.14;100667.78;20897466;28;20049;-64
2023/05/09 14:13:57;;;;;;;4.80;3.85;;;;;;;20.27;66.06;100650.63;20897811;28;20060;-64
2023/05/09 14:23:58;;;;;;;4.82;3.85;;;;;;;20.35;66.16;100655.25;20897672;28;20041;-65
2023/05/09 14:34:00;;;;;;;3.90;3.50;;;;;;;20.35;66.20;100640.88;20882082;28;20452;-65
2023/05/09 14:44:02;;;;;;;4.38;3.58;;;;;;;20.34;65.96;100631.94;20912415;28;20130;-64
2023/05/09 14:54:04;;;;;;;3.45;3.10;;;;;;;20.35;66.10;100620.13;20893350;28;20049;-64
2023/05/09 15:04:05;;;;;;;3.53;3.22;;;;;;;20.34;66.10;100613.00;20909047;28;20049;-64
2023/05/09 15:14:07;;;;;;;4.38;3.17;;;;;;;20.34;65.86;100610.31;20909971;28;20533;-65
2023/05/09 15:24:08;;;;;;;3.95;3.47;;;;;;;20.33;66.13;100602.34;20904403;28;20049;-64
2023/05/09 15:34:10;;;;;;;3.08;2.78;;;;;;;20.32;66.10;100601.47;20901777;28;20049;-65
2023/05/09 15:44:13;;;;;;;3.17;2.88;;;;;;;20.32;65.86;100600.66;20907544;28;20068;-65
2023/05/09 15:54:14;;;;;;;3.28;2.97;;;;;;;20.29;65.99;100591.84;20906569;28;20505;-65
2023/05/09 16:04:16;;;;;;;2.92;2.60;;;;;;;20.25;65.96;100576.97;20905342;28;20056;-65
2023/05/09 16:14:18;;;;;;;3.03;2.55;;;;;;;20.28;66.23;100575.78;20905005;28;20072;-64
2023/05/09 16:24:20;;;;;;;3.00;2.70;;;;;;;20.27;66.34;100565.97;20890200;28;20049;-64
2023/05/09 16:34:22;;;;;;;2.70;2.40;;;;;;;20.27;66.41;100557.88;20902217;28;20095;-64
2023/05/09 16:44:24;;;;;;;2.78;2.30;;;;;;;20.23;66.43;100545.69;20902601;28;20052;-64
2023/05/09 16:54:26;;;;;;;2.40;2.10;;;;;;;20.24;66.78;100540.13;20901336;28;20049;-64
2023/05/09 17:04:28;;;;;;;2.33;2.13;;;;;;;20.23;66.78;100538.44;20883959;28;20408;-64
2023/05/09 17:14:29;;;;;;;2.05;1.85;;;;;;;20.23;66.67;100533.03;20900261;28;20056;-64
2023/05/09 17:24:31;;;;;;;2.00;1.80;;;;;;;20.22;66.71;100523.22;20890331;28;20508;-64
2023/05/09 17:34:33;;;;;;;2.42;2.08;;;;;;;20.21;66.85;100520.66;20899626;28;20049;-65
2023/05/09 17:44:35;;;;;;;2.15;1.90;;;;;;;20.20;66.69;100510.88;20898002;28;20087;-64
2023/05/09 17:54:37;;;;;;;2.38;1.60;;;;;;;20.19;66.60;100503.78;20897986;28;20571;-64
2023/05/09 18:04:39;;;;;;;1.75;1.65;;;;;;;20.17;66.61;100503.94;20900957;28;20126;-65
2023/05/09 18:14:40;;;;;;;2.03;1.70;;;;;;;20.17;66.51;100497.69;20914070;28;20103;-65
2023/05/09 18:24:42;;;;;;;1.80;1.58;;;;;;;20.16;66.51;100490.59;20901465;28;20056;-65
2023/05/09 18:34:44;;;;;;;1.70;1.60;;;;;;;20.14;66.53;100486.19;20912182;28;20052;-65
2023/05/09 18:44:45;;;;;;;1.30;1.20;;;;;;;20.14;66.66;100490.75;20911935;28;20062;-65
2023/05/09 18:54:47;;;;;;;1.60;1.50;;;;;;;20.13;66.83;100497.16;20909934;28;20057;-64
2023/05/09 19:04:50;;;;;;;1.50;1.40;;;;;;;20.12;66.69;100496.31;20910682;28;20095;-64
2023/05/09 19:14:51;;;;;;;1.17;1.08;;;;;;;20.11;66.71;100502.72;20909732;28;20049;-64
2023/05/09 19:24:55;;;;;;;1.58;1.33;;;;;;;20.11;66.67;100520.81;20893421;28;20053;-65
2023/05/09 19:34:57;;;;;;;1.40;1.30;;;;;;;20.11;66.79;100507.28;20908274;28;20140;-64
2023/05/09 19:44:59;;;;;;;1.15;1.10;;;;;;;20.10;66.85;100502.88;20907095;28;20064;-64
2023/05/09 19:55:01;;;;;;;1.40;1.30;;;;;;;20.09;66.77;100507.44;20906646;28;20049;-65
2023/05/09 20:05:02;;;;;;;1.20;1.10;;;;;;;20.08;66.73;100497.66;20906016;28;20060;-65
2023/05/09 20:15:05;;;;;;;1.20;1.10;;;;;;;20.07;66.57;100490.53;20903671;28;20049;-65
2023/05/09 20:25:07;;;;;;;1.20;1.13;;;;;;;20.07;66.75;100485.13;20892397;28;20063;-65
2023/05/09 20:35:09;;;;;;;0.80;0.80;;;;;;;20.06;66.75;100483.44;20901494;28;20064;-64
2023/05/09 20:45:10;;;;;;;1.20;1.10;;;;;;;20.05;66.87;100481.75;20902564;28;20052;-64
2023/05/09 20:55:12;;;;;;;0.77;0.70;;;;;;;20.04;67.01;100480.06;20902233;28;20823;-64
2023/05/09 21:05:13;;;;;;;1.08;1.00;;;;;;;20.04;67.30;100479.19;20901199;28;20394;-65
2023/05/09 21:15:15;;;;;;;0.80;0.80;;;;;;;20.02;67.09;100470.41;20894094;28;20087;-64
2023/05/09 21:25:16;;;;;;;1.13;1.02;;;;;;;20.03;67.32;100472.97;20890706;28;20052;-65
2023/05/09 21:35:18;;;;;;;1.05;0.95;;;;;;;20.02;67.19;100460.47;20898814;28;20049;-64
2023/05/09 21:45:20;;;;;;;0.80;0.80;;;;;;;20.00;67.00;100454.38;20909644;28;20081;-64
2023/05/09 21:55:21;;;;;;;0.90;0.90;;;;;;;19.98;67.39;100451.81;20897535;28;20053;-64
2023/05/09 22:05:23;;;;;;;1.02;0.90;;;;;;;19.98;67.27;100442.88;20897233;28;20529;-64
2023/05/09 22:15:25;;;;;;;0.75;0.75;;;;;;;19.98;67.38;100442.88;20904365;28;20075;-65
2023/05/09 22:25:27;;;;;;;0.70;0.70;;;;;;;19.96;67.57;100439.50;20913483;28;20107;-65
2023/05/09 22:35:28;;;;;;;0.98;0.90;;;;;;;19.94;67.60;100434.25;20912581;28;20106;-65
2023/05/09 22:45:30;;;;;;;0.60;0.60;;;;;;;19.94;67.25;100436.13;20912450;28;20091;-65
2023/05/09 22:55:31;;;;;;;0.80;0.80;;;;;;;19.93;67.62;100429.84;20908823;28;20045;-65
2023/05/09 23:05:34;;;;;;;1.00;0.90;;;;;;;19.93;67.63;100431.72;20910343;28;20099;-64
2023/05/09 23:15:36;;;;;;;0.90;0.82;;;;;;;19.92;67.44;100422.75;20896996;28;20606;-64
2023/05/09 23:25:37;;;;;;;0.80;0.80;;;;;;;19.92;67.40;100413.81;20909655;28;20052;-65
2023/05/09 23:35:39;;;;;;;0.60;0.60;;;;;;;19.91;67.18;100420.22;20907927;28;20053;-65
2023/05/09 23:45:41;;;;;;;0.65;0.60;;;;;;;19.89;67.31;100406.84;20906448;28;20059;-64
2023/05/09 23:55:43;;;;;;;0.85;0.85;;;;;;;19.88;67.13;100405.13;20906986;28;20091;-64
